createdAt,value
2023-02-25T00:01:35.157Z,3.80
2023-02-25T00:04:01.736Z,3.42
2023-02-25T00:06:28.560Z,3.67
2023-02-25T00:08:55.514Z,3.47
2023-02-25T00:11:23.702Z,4.20
2023-02-25T00:13:50.669Z,4.03
2023-02-25T00:16:17.517Z,3.63
2023-02-25T00:18:47.221Z,4.40
2023-02-25T00:21:15.474Z,4.43
2023-02-25T00:23:46.320Z,4.20
2023-02-25T00:26:13.077Z,4.80
2023-02-25T00:28:42.954Z,4.65
2023-02-25T00:31:11.289Z,4.75
2023-02-25T00:33:42.450Z,4.90
2023-02-25T00:36:15.245Z,4.75
2023-02-25T00:38:41.826Z,5.63
2023-02-25T00:41:11.888Z,4.82
2023-02-25T00:43:39.409Z,5.20
2023-02-25T00:46:06.145Z,5.07
2023-02-25T00:48:33.640Z,4.95
2023-02-25T00:51:04.513Z,5.60
2023-02-25T00:53:31.028Z,4.70
2023-02-25T00:56:01.611Z,5.03
2023-02-25T00:58:29.203Z,5.00
2023-02-25T01:00:55.968Z,5.00
2023-02-25T01:03:23.185Z,5.40
2023-02-25T01:05:50.735Z,4.50
2023-02-25T01:08:18.014Z,4.70
2023-02-25T01:10:45.577Z,5.20
2023-02-25T01:13:12.399Z,5.13
2023-02-25T01:15:39.058Z,5.47
2023-02-25T01:18:05.809Z,5.20
2023-02-25T01:20:32.955Z,4.95
2023-02-25T01:22:59.299Z,4.97
2023-02-25T01:25:26.031Z,5.38
2023-02-25T01:27:56.255Z,4.95
2023-02-25T01:30:23.162Z,5.13
2023-02-25T01:32:50.754Z,5.30
2023-02-25T01:35:17.562Z,5.15
2023-02-25T01:37:46.794Z,4.57
2023-02-25T01:40:16.386Z,5.18
2023-02-25T01:42:44.152Z,5.68
2023-02-25T01:45:11.344Z,5.18
2023-02-25T01:47:39.750Z,5.25
2023-02-25T01:50:06.889Z,5.50
2023-02-25T01:52:33.637Z,5.13
2023-02-25T01:55:00.270Z,5.78
2023-02-25T01:57:26.935Z,6.03
2023-02-25T01:59:54.214Z,5.35
2023-02-25T02:02:24.370Z,4.93
2023-02-25T02:04:53.217Z,5.18
2023-02-25T02:07:20.709Z,5.30
2023-02-25T02:09:56.165Z,5.30
2023-02-25T02:12:33.456Z,5.55
2023-02-25T02:15:02.417Z,5.57
2023-02-25T02:17:30.291Z,4.53
2023-02-25T02:20:13.802Z,5.03
2023-02-25T02:23:15.040Z,5.28
2023-02-25T02:26:00.819Z,5.45
2023-02-25T02:28:36.401Z,5.20
2023-02-25T02:31:20.154Z,5.35
2023-02-25T02:33:46.640Z,5.32
2023-02-25T02:36:19.595Z,5.13
2023-02-25T02:38:50.534Z,4.82
2023-02-25T02:41:37.182Z,4.50
2023-02-25T02:44:16.662Z,4.88
2023-02-25T02:46:51.380Z,5.18
2023-02-25T02:49:20.719Z,5.35
2023-02-25T02:51:51.779Z,5.00
2023-02-25T02:54:18.831Z,5.55
2023-02-25T02:56:46.638Z,5.38
2023-02-25T02:59:27.682Z,5.35
2023-02-25T03:01:57.738Z,5.13
2023-02-25T03:04:28.206Z,4.85
2023-02-25T03:07:04.335Z,5.00
2023-02-25T03:09:35.860Z,5.15
2023-02-25T03:12:02.641Z,5.38
2023-02-25T03:14:32.650Z,4.70
2023-02-25T03:17:07.623Z,5.03
2023-02-25T03:19:39.529Z,5.15
2023-02-25T03:22:14.085Z,5.43
2023-02-25T03:24:50.601Z,4.75
2023-02-25T03:27:35.359Z,4.95
2023-02-25T03:30:15.369Z,5.35
2023-02-25T03:32:44.946Z,5.15
2023-02-25T03:35:12.400Z,5.10
2023-02-25T03:37:39.464Z,5.03
2023-02-25T03:40:11.300Z,5.07
2023-02-25T03:42:41.884Z,4.90
2023-02-25T03:45:10.948Z,6.97
2023-02-25T03:47:38.440Z,5.30
2023-02-25T03:50:20.282Z,5.90
2023-02-25T03:52:52.046Z,6.10
2023-02-25T03:55:38.740Z,5.00
2023-02-25T03:58:10.392Z,5.05
2023-02-25T04:00:38.734Z,5.68
2023-02-25T04:03:05.551Z,5.45
2023-02-25T04:05:32.323Z,5.15
2023-02-25T04:07:59.162Z,5.53
2023-02-25T04:10:30.280Z,5.00
2023-02-25T04:12:56.869Z,5.90
2023-02-25T04:15:23.430Z,5.63
2023-02-25T04:17:50.093Z,5.75
2023-02-25T04:20:17.603Z,5.53
2023-02-25T04:22:44.458Z,5.38
2023-02-25T04:25:10.887Z,6.40
2023-02-25T04:27:37.477Z,4.97
2023-02-25T04:30:04.553Z,5.75
2023-02-25T04:32:31.257Z,6.28
2023-02-25T04:35:02.983Z,6.28
2023-02-25T04:37:29.875Z,5.80
2023-02-25T04:39:58.185Z,6.20
2023-02-25T04:42:24.540Z,5.93
2023-02-25T04:44:50.936Z,5.72
2023-02-25T04:47:18.997Z,6.55
2023-02-25T04:49:45.658Z,5.07
2023-02-25T04:52:13.009Z,5.28
2023-02-25T04:54:41.349Z,6.05
2023-02-25T04:57:08.922Z,5.43
2023-02-25T04:59:35.567Z,5.82
2023-02-25T05:02:02.394Z,5.70
2023-02-25T05:04:29.001Z,5.65
2023-02-25T05:06:55.770Z,5.35
2023-02-25T05:09:22.532Z,5.32
2023-02-25T05:11:48.995Z,5.63
2023-02-25T05:14:15.421Z,5.10
2023-02-25T05:16:42.062Z,5.03
2023-02-25T05:19:08.721Z,5.78
2023-02-25T05:21:35.423Z,5.28
2023-02-25T05:24:01.770Z,5.93
2023-02-25T05:26:28.475Z,5.00
2023-02-25T05:28:57.008Z,5.22
2023-02-25T05:31:25.102Z,5.32
2023-02-25T05:33:53.477Z,4.80
2023-02-25T05:36:20.178Z,5.43
2023-02-25T05:38:46.783Z,5.38
2023-02-25T05:41:13.639Z,5.95
2023-02-25T05:43:40.238Z,5.25
2023-02-25T05:46:11.618Z,5.75
2023-02-25T05:48:39.274Z,5.85
2023-02-25T05:51:08.051Z,5.10
2023-02-25T05:53:35.076Z,6.20
2023-02-25T05:56:05.789Z,5.90
2023-02-25T05:58:32.142Z,5.85
2023-02-25T06:00:58.650Z,6.40
2023-02-25T06:03:25.241Z,6.22
2023-02-25T06:05:53.205Z,6.10
2023-02-25T06:08:19.771Z,6.70
2023-02-25T06:10:46.515Z,6.55
2023-02-25T06:13:13.180Z,6.18
2023-02-25T06:15:40.631Z,5.60
2023-02-25T06:18:07.301Z,6.75
2023-02-25T06:20:35.356Z,5.95
2023-02-25T06:23:02.282Z,6.07
2023-02-25T06:25:30.174Z,6.13
2023-02-25T06:27:57.196Z,5.82
2023-02-25T06:30:24.122Z,5.85
2023-02-25T06:32:50.569Z,6.70
2023-02-25T06:35:18.122Z,5.93
2023-02-25T06:37:44.768Z,7.03
2023-02-25T06:40:15.575Z,5.68
2023-02-25T06:42:42.153Z,6.18
2023-02-25T06:45:08.724Z,6.72
2023-02-25T06:47:35.350Z,6.28
2023-02-25T06:50:02.750Z,6.28
2023-02-25T06:52:29.528Z,6.25
2023-02-25T06:54:56.060Z,6.22
2023-02-25T06:57:22.583Z,6.25
2023-02-25T06:59:49.549Z,5.60
2023-02-25T07:02:16.125Z,6.25
2023-02-25T07:04:44.069Z,6.82
2023-02-25T07:07:11.098Z,6.15
2023-02-25T07:09:37.650Z,6.25
2023-02-25T07:12:04.369Z,6.28
2023-02-25T07:14:31.078Z,6.45
2023-02-25T07:16:57.693Z,7.15
2023-02-25T07:19:24.087Z,6.65
2023-02-25T07:21:50.458Z,7.22
2023-02-25T07:24:17.452Z,6.95
2023-02-25T07:26:43.807Z,6.53
2023-02-25T07:29:10.607Z,6.85
2023-02-25T07:31:37.480Z,6.70
2023-02-25T07:34:04.901Z,6.78
2023-02-25T07:36:36.042Z,6.47
2023-02-25T07:39:04.420Z,5.75
2023-02-25T07:41:31.119Z,5.03
2023-02-25T07:44:02.253Z,5.85
2023-02-25T07:46:29.375Z,5.28
2023-02-25T07:48:55.996Z,5.47
2023-02-25T07:51:24.294Z,6.20
2023-02-25T07:53:51.805Z,6.82
2023-02-25T07:56:19.415Z,5.80
2023-02-25T07:58:47.651Z,5.57
2023-02-25T08:01:24.592Z,4.47
2023-02-25T08:03:51.995Z,5.10
2023-02-25T08:06:18.577Z,4.68
2023-02-25T08:08:45.509Z,5.35
2023-02-25T08:11:14.387Z,5.13
2023-02-25T08:13:41.505Z,5.80
2023-02-25T08:16:10.213Z,5.05
2023-02-25T08:18:36.950Z,5.75
2023-02-25T08:21:04.733Z,5.82
2023-02-25T08:23:32.363Z,5.55
2023-02-25T08:25:59.449Z,6.13
2023-02-25T08:28:27.097Z,5.50
2023-02-25T08:30:54.709Z,5.53
2023-02-25T08:33:21.401Z,5.85
2023-02-25T08:35:47.823Z,4.95
2023-02-25T08:38:14.261Z,5.18
2023-02-25T08:40:40.768Z,5.30
2023-02-25T08:43:08.107Z,5.22
2023-02-25T08:45:35.992Z,5.40
2023-02-25T08:48:02.440Z,5.40
2023-02-25T08:50:29.980Z,5.50
2023-02-25T08:52:57.711Z,5.32
2023-02-25T08:55:25.284Z,5.00
2023-02-25T08:57:52.041Z,5.22
2023-02-25T09:00:19.520Z,4.78
2023-02-25T09:02:45.914Z,5.13
2023-02-25T09:05:12.418Z,5.50
2023-02-25T09:07:39.231Z,5.00
2023-02-25T09:10:10.374Z,6.05
2023-02-25T09:12:38.269Z,4.90
2023-02-25T09:15:05.143Z,5.40
2023-02-25T09:17:31.823Z,5.20
2023-02-25T09:20:01.417Z,4.30
2023-02-25T09:22:28.490Z,4.03
2023-02-25T09:24:55.925Z,4.70
2023-02-25T09:27:22.537Z,4.82
2023-02-25T09:29:48.904Z,4.50
2023-02-25T09:32:19.829Z,4.70
2023-02-25T09:34:49.298Z,5.25
2023-02-25T09:37:16.549Z,4.63
2023-02-25T09:39:43.196Z,4.78
2023-02-25T09:42:10.504Z,4.63
2023-02-25T09:44:40.845Z,4.65
2023-02-25T09:47:19.801Z,4.60
2023-02-25T09:49:48.324Z,4.05
2023-02-25T09:52:19.196Z,4.60
2023-02-25T09:54:47.254Z,4.22
2023-02-25T09:57:19.138Z,4.50
2023-02-25T09:59:49.917Z,5.18
2023-02-25T10:02:21.330Z,3.88
2023-02-25T10:05:12.059Z,4.07
2023-02-25T10:07:47.334Z,3.80
2023-02-25T10:10:18.917Z,4.10
2023-02-25T10:12:53.665Z,5.15
2023-02-25T10:15:23.180Z,4.32
2023-02-25T10:18:11.180Z,4.57
2023-02-25T10:20:49.387Z,6.72
2023-02-25T10:23:18.803Z,3.58
2023-02-25T10:25:54.826Z,4.25
2023-02-25T10:28:22.734Z,4.28
2023-02-25T10:30:59.500Z,5.55
2023-02-25T10:33:27.769Z,3.90
2023-02-25T10:35:56.676Z,3.50
2023-02-25T10:38:23.236Z,4.60
2023-02-25T10:40:49.766Z,4.15
2023-02-25T10:43:21.558Z,4.03
2023-02-25T10:45:51.965Z,3.92
2023-02-25T10:48:21.255Z,4.13
2023-02-25T10:51:05.900Z,4.10
2023-02-25T10:53:35.646Z,4.60
2023-02-25T10:56:02.976Z,4.53
2023-02-25T10:58:29.458Z,4.18
2023-02-25T11:00:58.426Z,3.22
2023-02-25T11:03:25.481Z,3.97
2023-02-25T11:05:51.884Z,4.85
2023-02-25T11:08:29.042Z,5.90
2023-02-25T11:11:06.331Z,4.20
2023-02-25T11:13:34.883Z,3.75
2023-02-25T11:16:06.953Z,4.60
2023-02-25T11:18:34.292Z,5.32
2023-02-25T11:21:02.686Z,4.35
2023-02-25T11:23:48.642Z,4.25
2023-02-25T11:26:35.595Z,4.07
2023-02-25T11:29:05.038Z,3.22
2023-02-25T11:31:35.789Z,5.38
2023-02-25T11:34:05.798Z,5.05
2023-02-25T11:36:37.045Z,3.97
2023-02-25T11:39:13.553Z,4.70
2023-02-25T11:41:40.294Z,6.00
2023-02-25T11:44:21.594Z,4.85
2023-02-25T11:47:11.036Z,4.97
2023-02-25T11:49:58.475Z,4.63
2023-02-25T11:52:30.294Z,3.65
2023-02-25T11:55:12.933Z,3.15
2023-02-25T11:57:39.417Z,7.45
2023-02-25T12:00:25.853Z,2.60
2023-02-25T12:03:06.929Z,2.15
2023-02-25T12:05:44.312Z,1.70
2023-02-25T12:08:13.877Z,1.60
2023-02-25T12:10:52.851Z,1.60
2023-02-25T12:13:38.041Z,1.90
2023-02-25T12:16:23.203Z,1.92
2023-02-25T12:18:50.228Z,2.10
2023-02-25T12:21:35.542Z,2.03
2023-02-25T12:24:08.026Z,1.85
2023-02-25T12:26:54.772Z,1.92
2023-02-25T12:29:33.164Z,1.50
2023-02-25T12:32:06.353Z,1.70
2023-02-25T12:34:53.284Z,1.50
2023-02-25T12:38:00.291Z,1.60
2023-02-25T12:40:42.525Z,5.55
2023-02-25T12:43:27.367Z,2.30
2023-02-25T12:45:54.064Z,4.18
2023-02-25T12:48:20.439Z,2.63
2023-02-25T12:50:55.814Z,2.50
2023-02-25T12:53:31.566Z,2.38
2023-02-25T12:56:11.478Z,2.10
2023-02-25T12:58:41.677Z,2.00
2023-02-25T13:01:14.371Z,2.05
2023-02-25T13:03:50.245Z,1.50
2023-02-25T13:06:36.885Z,1.70
2023-02-25T13:09:03.611Z,1.67
2023-02-25T13:12:10.636Z,1.83
2023-02-25T13:14:44.431Z,1.58
2023-02-25T13:17:16.268Z,1.55
2023-02-25T13:20:02.917Z,1.70
2023-02-25T13:22:32.331Z,1.30
2023-02-25T13:25:13.885Z,1.65
2023-02-25T13:27:41.798Z,1.30
2023-02-25T13:30:14.500Z,1.70
2023-02-25T13:32:54.013Z,1.60
2023-02-25T13:35:21.107Z,2.67
2023-02-25T13:37:54.741Z,1.90
2023-02-25T13:40:27.117Z,1.33
2023-02-25T13:43:19.607Z,1.30
2023-02-25T13:45:46.038Z,1.48
2023-02-25T13:48:18.800Z,1.77
2023-02-25T13:50:57.145Z,1.77
2023-02-25T13:53:30.224Z,1.70
2023-02-25T13:56:15.510Z,2.00
2023-02-25T13:59:00.862Z,2.25
2023-02-25T14:01:31.676Z,2.30
2023-02-25T14:04:17.137Z,2.00
2023-02-25T14:07:02.380Z,1.92
2023-02-25T14:09:42.874Z,1.80
2023-02-25T14:12:15.418Z,1.48
2023-02-25T14:15:00.867Z,1.50
2023-02-25T14:17:36.487Z,2.75
2023-02-25T14:20:11.211Z,2.08
2023-02-25T14:22:53.759Z,2.05
2023-02-25T14:25:40.440Z,2.13
2023-02-25T14:28:17.341Z,1.90
2023-02-25T14:30:46.800Z,2.63
2023-02-25T14:33:25.130Z,2.45
2023-02-25T14:35:52.521Z,1.98
2023-02-25T14:38:26.331Z,1.83
2023-02-25T14:40:57.430Z,2.50
2023-02-25T14:43:29.664Z,2.17
2023-02-25T14:46:03.017Z,2.08
2023-02-25T14:48:52.475Z,2.33
2023-02-25T14:51:37.721Z,2.30
2023-02-25T14:54:07.472Z,2.17
2023-02-25T14:56:37.246Z,2.08
2023-02-25T14:59:18.031Z,2.00
2023-02-25T15:01:53.724Z,1.65
2023-02-25T15:04:39.270Z,1.83
2023-02-25T15:07:11.800Z,2.67
2023-02-25T15:10:05.166Z,2.35
2023-02-25T15:12:32.803Z,2.80
2023-02-25T15:15:18.296Z,2.30
2023-02-25T15:17:50.710Z,2.88
2023-02-25T15:20:26.971Z,3.00
2023-02-25T15:23:12.849Z,3.03
2023-02-25T15:25:45.285Z,2.50
2023-02-25T15:28:30.178Z,3.53
2023-02-25T15:31:02.973Z,2.42
2023-02-25T15:33:42.756Z,2.53
2023-02-25T15:36:15.265Z,1.98
2023-02-25T15:38:42.040Z,2.10
2023-02-25T15:41:27.123Z,2.10
2023-02-25T15:44:08.982Z,1.73
2023-02-25T15:46:37.322Z,1.67
2023-02-25T15:49:12.951Z,2.00
2023-02-25T15:51:42.501Z,2.15
2023-02-25T15:54:33.179Z,2.10
2023-02-25T15:57:00.587Z,1.70
2023-02-25T15:59:46.534Z,1.80
2023-02-25T16:02:34.747Z,1.70
2023-02-25T16:05:14.182Z,1.80
2023-02-25T16:07:42.528Z,2.13
2023-02-25T16:10:19.456Z,2.17
2023-02-25T16:12:49.199Z,1.50
2023-02-25T16:15:21.838Z,1.88
2023-02-25T16:17:48.674Z,1.98
2023-02-25T16:20:18.253Z,1.95
2023-02-25T16:22:46.522Z,1.60
2023-02-25T16:25:15.905Z,1.70
2023-02-25T16:27:54.627Z,2.17
2023-02-25T16:30:29.123Z,2.75
2023-02-25T16:33:14.512Z,2.30
2023-02-25T16:36:02.634Z,2.00
2023-02-25T16:38:51.202Z,2.50
2023-02-25T16:41:17.896Z,2.90
2023-02-25T16:43:45.709Z,2.97
2023-02-25T16:46:20.976Z,5.13
2023-02-25T16:48:53.113Z,3.53
2023-02-25T16:51:21.946Z,2.30
2023-02-25T16:53:50.334Z,2.53
2023-02-25T16:56:20.300Z,2.92
2023-02-25T16:59:02.195Z,3.17
2023-02-25T17:01:30.192Z,4.35
2023-02-25T17:04:12.581Z,3.00
2023-02-25T17:06:38.930Z,5.28
2023-02-25T17:09:05.288Z,5.25
2023-02-25T17:11:31.694Z,3.10
2023-02-25T17:13:59.243Z,2.97
2023-02-25T17:16:30.353Z,3.35
2023-02-25T17:18:58.734Z,3.17
2023-02-25T17:21:27.462Z,2.65
2023-02-25T17:23:54.409Z,2.20
2023-02-25T17:26:21.666Z,1.98
2023-02-25T17:28:51.682Z,2.05
2023-02-25T17:31:20.149Z,2.35
2023-02-25T17:33:55.578Z,2.13
2023-02-25T17:36:27.353Z,2.92
2023-02-25T17:38:58.684Z,2.70
2023-02-25T17:41:25.679Z,3.30
2023-02-25T17:43:52.484Z,2.65
2023-02-25T17:46:39.311Z,2.72
2023-02-25T17:49:32.128Z,1.98
2023-02-25T17:52:03.831Z,2.05
2023-02-25T17:54:32.689Z,1.65
2023-02-25T17:57:08.656Z,2.08
2023-02-25T17:59:39.062Z,1.98
2023-02-25T18:02:24.432Z,1.77
2023-02-25T18:04:53.840Z,1.35
2023-02-25T18:07:22.123Z,1.67
2023-02-25T18:09:49.084Z,2.40
2023-02-25T18:12:22.098Z,1.60
2023-02-25T18:14:52.116Z,1.40
2023-02-25T18:17:18.492Z,1.73
2023-02-25T18:19:46.281Z,1.40
2023-02-25T18:22:27.180Z,1.40
2023-02-25T18:24:54.602Z,1.10
2023-02-25T18:27:27.739Z,1.38
2023-02-25T18:29:56.359Z,1.40
2023-02-25T18:32:23.086Z,1.92
2023-02-25T18:34:49.702Z,1.67
2023-02-25T18:37:19.909Z,1.52
2023-02-25T18:39:47.406Z,1.67
2023-02-25T18:42:15.256Z,1.67
2023-02-25T18:44:42.100Z,1.80
2023-02-25T18:47:08.668Z,1.88
2023-02-25T18:49:35.234Z,1.83
2023-02-25T18:52:02.262Z,2.10
2023-02-25T18:54:29.277Z,2.20
2023-02-25T18:56:55.799Z,1.60
2023-02-25T18:59:22.335Z,2.05
2023-02-25T19:01:48.926Z,1.67
2023-02-25T19:04:16.362Z,2.78
2023-02-25T19:06:43.334Z,1.60
2023-02-25T19:09:09.899Z,2.13
2023-02-25T19:11:37.150Z,1.95
2023-02-25T19:14:04.844Z,1.90
2023-02-25T19:16:31.411Z,1.73
2023-02-25T19:18:58.240Z,1.80
2023-02-25T19:21:25.393Z,1.63
2023-02-25T19:23:55.558Z,5.47
2023-02-25T19:26:22.507Z,4.50
2023-02-25T19:28:49.025Z,3.70
2023-02-25T19:31:17.881Z,3.17
2023-02-25T19:33:44.793Z,3.65
2023-02-25T19:36:11.424Z,2.95
2023-02-25T19:38:37.908Z,3.20
2023-02-25T19:41:07.232Z,3.70
2023-02-25T19:43:33.988Z,3.65
2023-02-25T19:46:04.784Z,3.88
2023-02-25T19:51:11.549Z,2.40
2023-02-25T19:53:37.957Z,2.10
2023-02-25T19:56:05.444Z,2.30
2023-02-25T19:58:32.040Z,2.28
2023-02-25T20:01:03.388Z,2.03
2023-02-25T20:03:30.186Z,2.08
2023-02-25T20:05:56.593Z,1.80
2023-02-25T20:08:23.736Z,1.88
2023-02-25T20:10:50.462Z,3.38
2023-02-25T20:13:17.720Z,2.72
2023-02-25T20:15:44.573Z,2.08
2023-02-25T20:18:11.077Z,2.25
2023-02-25T20:20:40.492Z,2.90
2023-02-25T20:23:06.938Z,2.70
2023-02-25T20:25:33.441Z,2.22
2023-02-25T20:27:59.789Z,2.10
2023-02-25T20:30:26.513Z,2.30
2023-02-25T20:32:52.964Z,2.15
2023-02-25T20:35:20.964Z,1.92
2023-02-25T20:38:09.131Z,2.20
2023-02-25T20:40:35.736Z,2.78
2023-02-25T20:43:02.887Z,2.65
2023-02-25T20:45:29.941Z,2.10
2023-02-25T20:47:58.069Z,2.13
2023-02-25T20:50:26.574Z,1.98
2023-02-25T20:52:53.105Z,2.55
2023-02-25T20:55:19.494Z,2.30
2023-02-25T20:57:45.872Z,3.55
2023-02-25T21:00:16.542Z,3.10
2023-02-25T21:02:43.142Z,3.53
2023-02-25T21:05:09.641Z,3.95
2023-02-25T21:07:36.011Z,3.10
2023-02-25T21:10:02.638Z,3.20
2023-02-25T21:12:29.216Z,3.08
2023-02-25T21:14:55.647Z,2.15
2023-02-25T21:17:22.449Z,2.35
2023-02-25T21:19:49.518Z,2.45
2023-02-25T21:22:16.126Z,2.10
2023-02-25T21:24:45.566Z,3.50
2023-02-25T21:27:12.078Z,4.72
2023-02-25T21:29:38.690Z,5.15
2023-02-25T21:32:05.721Z,4.60
2023-02-25T21:34:32.338Z,4.30
2023-02-25T21:36:58.908Z,7.97
2023-02-25T21:39:26.036Z,4.10
2023-02-25T21:41:52.869Z,4.47
2023-02-25T21:44:21.384Z,4.30
2023-02-25T21:46:48.018Z,3.85
2023-02-25T21:49:14.644Z,3.85
2023-02-25T21:51:41.305Z,3.80
2023-02-25T21:54:08.099Z,3.67
2023-02-25T21:56:34.827Z,3.70
2023-02-25T21:59:02.168Z,3.78
2023-02-25T22:01:30.240Z,3.67
2023-02-25T22:03:57.549Z,3.70
2023-02-25T22:06:24.907Z,3.25
2023-02-25T22:08:52.771Z,2.88
2023-02-25T22:11:23.797Z,2.10
2023-02-25T22:13:53.319Z,2.38
2023-02-25T22:16:19.978Z,3.25
2023-02-25T22:18:46.654Z,4.22
2023-02-25T22:21:17.522Z,2.50
2023-02-25T22:23:44.302Z,2.20
2023-02-25T22:26:12.577Z,2.20
2023-02-25T22:28:39.349Z,2.50
2023-02-25T22:31:08.801Z,2.67
2023-02-25T22:33:35.224Z,2.28
2023-02-25T22:36:03.095Z,2.67
2023-02-25T22:38:30.770Z,2.60
2023-02-25T22:40:57.591Z,2.53
2023-02-25T22:43:24.300Z,2.35
2023-02-25T22:45:50.843Z,2.72
2023-02-25T22:48:18.463Z,2.20
2023-02-25T22:50:49.031Z,2.40
2023-02-25T22:53:16.597Z,2.33
2023-02-25T22:55:43.947Z,2.10
2023-02-25T22:58:10.734Z,2.55
2023-02-25T23:00:41.804Z,3.50
2023-02-25T23:03:08.777Z,3.28
2023-02-25T23:05:35.552Z,3.30
2023-02-25T23:08:02.879Z,3.90
2023-02-25T23:10:32.023Z,4.50
2023-02-25T23:12:59.764Z,4.03
2023-02-25T23:15:28.485Z,4.05
2023-02-25T23:17:55.417Z,4.18
2023-02-25T23:20:22.933Z,3.33
2023-02-25T23:22:51.327Z,3.25
2023-02-25T23:25:17.982Z,4.07
2023-02-25T23:27:44.321Z,3.70
2023-02-25T23:30:11.456Z,3.25
2023-02-25T23:32:39.036Z,3.80
2023-02-25T23:35:05.710Z,3.58
2023-02-25T23:37:32.356Z,3.30
2023-02-25T23:39:58.883Z,3.58
2023-02-25T23:42:25.582Z,2.90
2023-02-25T23:44:51.893Z,3.42
2023-02-25T23:47:19.498Z,3.10
2023-02-25T23:49:46.667Z,3.50
2023-02-25T23:52:13.102Z,3.70
2023-02-25T23:54:39.825Z,3.72
2023-02-25T23:57:06.721Z,3.55
2023-02-25T23:59:33.464Z,3.65
